createdAt,value
2018-02-01T00:00:55.125Z,34.30
2018-02-01T00:01:59.295Z,32.03
2018-02-01T00:03:03.475Z,36.92
2018-02-01T00:04:07.681Z,29.40
2018-02-01T00:05:12.084Z,30.10
2018-02-01T00:06:16.762Z,37.77
2018-02-01T00:07:21.708Z,35.43
2018-02-01T00:08:26.663Z,32.53
2018-02-01T00:09:30.835Z,43.35
2018-02-01T00:10:36.173Z,33.15
2018-02-01T00:11:41.803Z,33.60
2018-02-01T00:12:46.897Z,37.20
2018-02-01T00:13:51.159Z,38.50
2018-02-01T00:14:56.133Z,32.65
2018-02-01T00:16:00.396Z,44.08
2018-02-01T00:17:05.389Z,42.15
2018-02-01T00:18:10.166Z,42.17
2018-02-01T00:19:14.534Z,35.33
2018-02-01T00:20:18.994Z,32.00
2018-02-01T00:21:23.242Z,38.40
2018-02-01T00:22:27.443Z,37.45
2018-02-01T00:23:31.627Z,43.80
2018-02-01T00:24:35.809Z,36.90
2018-02-01T00:25:40.347Z,34.33
2018-02-01T00:26:45.256Z,32.65
2018-02-01T00:27:50.299Z,35.05
2018-02-01T00:28:55.263Z,33.03
2018-02-01T00:29:59.482Z,28.90
2018-02-01T00:31:03.692Z,31.15
2018-02-01T00:32:08.144Z,28.85
2018-02-01T00:33:12.501Z,26.17
2018-02-01T00:34:16.781Z,29.92
2018-02-01T00:35:21.952Z,31.80
2018-02-01T00:36:27.035Z,24.25
2018-02-01T00:37:31.227Z,25.80
2018-02-01T00:38:35.411Z,25.67
2018-02-01T00:39:39.966Z,28.00
2018-02-01T00:40:44.925Z,20.77
2018-02-01T00:41:50.241Z,25.73
2018-02-01T00:42:54.449Z,23.60
2018-02-01T00:43:58.631Z,24.17
2018-02-01T00:45:02.842Z,21.12
2018-02-01T00:46:07.127Z,27.30
2018-02-01T00:47:11.397Z,26.23
2018-02-01T00:48:15.788Z,20.17
2018-02-01T00:49:20.951Z,24.55
2018-02-01T00:50:25.129Z,30.15
2018-02-01T00:51:29.309Z,31.73
2018-02-01T00:52:33.478Z,23.58
2018-02-01T00:53:37.652Z,27.20
2018-02-01T00:54:42.783Z,33.00
2018-02-01T00:55:47.381Z,26.23
2018-02-01T00:56:51.591Z,29.15
2018-02-01T00:57:55.801Z,32.58
2018-02-01T00:58:59.976Z,31.07
2018-02-01T01:00:05.123Z,29.25
2018-02-01T01:01:10.487Z,35.97
2018-02-01T01:02:14.790Z,29.48
2018-02-01T01:03:19.088Z,29.85
2018-02-01T01:04:24.029Z,42.23
2018-02-01T01:05:28.270Z,36.85
2018-02-01T01:06:32.516Z,30.23
2018-02-01T01:07:36.696Z,30.80
2018-02-01T01:08:41.468Z,39.75
2018-02-01T01:09:46.007Z,34.67
2018-02-01T01:10:50.361Z,35.90
2018-02-01T01:11:54.805Z,36.40
2018-02-01T01:12:59.781Z,29.45
2018-02-01T01:14:04.001Z,32.33
2018-02-01T01:15:08.226Z,37.85
2018-02-01T01:16:13.810Z,42.67
2018-02-01T01:17:18.789Z,43.63
2018-02-01T01:18:22.987Z,35.73
2018-02-01T01:19:27.181Z,39.85
2018-02-01T01:20:31.361Z,40.35
2018-02-01T01:21:36.352Z,39.97
2018-02-01T01:22:40.941Z,36.92
2018-02-01T01:23:45.234Z,36.22
2018-02-01T01:24:49.454Z,43.13
2018-02-01T01:25:53.642Z,43.55
2018-02-01T01:26:58.644Z,42.67
2018-02-01T01:28:02.819Z,39.20
2018-02-01T01:29:06.991Z,35.58
2018-02-01T01:30:12.277Z,42.65
2018-02-01T01:31:16.626Z,33.53
2018-02-01T01:32:21.284Z,35.42
2018-02-01T01:33:25.496Z,39.38
2018-02-01T01:34:29.730Z,47.88
2018-02-01T01:35:33.917Z,35.17
2018-02-01T01:36:38.189Z,42.25
2018-02-01T01:37:43.426Z,37.25
2018-02-01T01:38:48.525Z,36.88
2018-02-01T01:39:52.908Z,52.25
2018-02-01T01:40:57.120Z,33.75
2018-02-01T01:42:01.331Z,40.53
2018-02-01T01:43:05.542Z,39.65
2018-02-01T01:44:09.847Z,32.67
2018-02-01T01:45:14.713Z,35.03
2018-02-01T01:46:18.994Z,40.47
2018-02-01T01:47:23.251Z,33.40
2018-02-01T01:48:27.428Z,31.17
2018-02-01T01:49:31.622Z,37.60
2018-02-01T01:50:35.814Z,29.60
2018-02-01T01:51:41.064Z,41.47
2018-02-01T01:52:45.425Z,39.88
2018-02-01T01:53:49.693Z,35.40
2018-02-01T01:54:53.871Z,27.17
2018-02-01T01:55:58.058Z,35.78
2018-02-01T01:57:02.271Z,37.23
2018-02-01T01:58:06.487Z,31.90
2018-02-01T01:59:11.275Z,30.20
2018-02-01T02:00:15.771Z,30.00
2018-02-01T02:01:20.196Z,31.17
2018-02-01T02:02:24.500Z,37.45
2018-02-01T02:03:29.460Z,28.05
2018-02-01T02:04:33.648Z,34.00
2018-02-01T02:05:37.819Z,28.20
2018-02-01T02:06:43.059Z,36.83
2018-02-01T02:07:47.356Z,30.23
2018-02-01T02:08:51.693Z,30.58
2018-02-01T02:09:56.696Z,36.70
2018-02-01T02:11:00.871Z,27.40
2018-02-01T02:12:05.071Z,32.80
2018-02-01T02:13:09.585Z,41.05
2018-02-01T02:14:14.526Z,23.80
2018-02-01T02:15:18.931Z,26.87
2018-02-01T02:16:23.219Z,28.12
2018-02-01T02:17:28.165Z,28.85
2018-02-01T02:18:32.382Z,28.02
2018-02-01T02:19:36.662Z,31.62
2018-02-01T02:20:41.145Z,32.88
2018-02-01T02:21:46.586Z,26.15
2018-02-01T02:22:50.966Z,34.50
2018-02-01T02:23:55.252Z,32.50
2018-02-01T02:25:00.221Z,26.27
2018-02-01T02:26:04.411Z,20.45
2018-02-01T02:27:08.609Z,27.58
2018-02-01T02:28:13.027Z,27.25
2018-02-01T02:29:17.359Z,32.33
2018-02-01T02:30:21.593Z,26.33
2018-02-01T02:31:25.788Z,25.45
2018-02-01T02:32:30.016Z,20.83
2018-02-01T02:33:34.196Z,23.63
2018-02-01T02:34:38.621Z,27.90
2018-02-01T02:35:43.130Z,26.33
2018-02-01T02:36:48.074Z,18.00
2018-02-01T02:37:52.260Z,18.52
2018-02-01T02:38:57.283Z,18.35
2018-02-01T02:40:02.291Z,18.92
2018-02-01T02:41:06.486Z,25.00
2018-02-01T02:42:10.863Z,20.98
2018-02-01T02:43:15.088Z,21.65
2018-02-01T02:44:19.296Z,26.52
2018-02-01T02:45:24.460Z,23.43
2018-02-01T02:46:28.662Z,19.27
2018-02-01T02:47:33.015Z,21.52
2018-02-01T02:48:37.998Z,20.62
2018-02-01T02:49:42.307Z,26.02
2018-02-01T02:50:46.690Z,16.47
2018-02-01T02:51:51.826Z,23.00
2018-02-01T02:52:55.998Z,26.23
2018-02-01T02:54:00.222Z,27.55
2018-02-01T02:55:05.177Z,15.57
2018-02-01T02:56:10.309Z,24.00
2018-02-01T02:57:14.772Z,14.32
2018-02-01T02:58:20.089Z,17.83
2018-02-01T02:59:24.259Z,23.27
2018-02-01T03:00:28.432Z,30.02
2018-02-01T03:01:32.750Z,28.03
2018-02-01T03:02:38.430Z,22.70
2018-02-01T03:03:44.082Z,22.75
2018-02-01T03:04:48.932Z,21.15
2018-02-01T03:05:53.116Z,18.13
2018-02-01T03:06:57.431Z,17.60
2018-02-01T03:08:01.634Z,19.75
2018-02-01T03:09:05.824Z,15.48
2018-02-01T03:10:12.017Z,16.77
2018-02-01T03:11:18.477Z,17.87
2018-02-01T03:12:22.718Z,13.52
2018-02-01T03:13:26.901Z,14.93
2018-02-01T03:14:31.102Z,13.87
2018-02-01T03:15:35.305Z,18.48
2018-02-01T03:16:39.954Z,15.05
2018-02-01T03:17:44.412Z,16.40
2018-02-01T03:18:49.889Z,21.27
2018-02-01T03:19:54.118Z,15.73
2018-02-01T03:20:58.396Z,14.07
2018-02-01T03:22:03.423Z,15.60
2018-02-01T03:23:08.383Z,22.90
2018-02-01T03:24:13.538Z,32.47
2018-02-01T03:25:17.731Z,15.23
2018-02-01T03:26:22.129Z,25.87
2018-02-01T03:27:26.343Z,21.58
2018-02-01T03:28:30.511Z,18.17
2018-02-01T03:29:34.812Z,18.47
2018-02-01T03:30:39.005Z,11.40
2018-02-01T03:31:44.112Z,24.02
2018-02-01T03:32:49.020Z,14.45
2018-02-01T03:33:53.321Z,14.90
2018-02-01T03:34:58.259Z,15.80
2018-02-01T03:36:03.208Z,22.42
2018-02-01T03:37:07.418Z,16.40
2018-02-01T03:38:12.231Z,16.30
2018-02-01T03:39:16.512Z,15.20
2018-02-01T03:40:20.730Z,16.73
2018-02-01T03:41:24.925Z,24.73
2018-02-01T03:42:29.103Z,17.25
2018-02-01T03:43:33.315Z,13.90
2018-02-01T03:44:37.477Z,24.13
2018-02-01T03:45:43.428Z,23.60
2018-02-01T03:46:48.366Z,20.52
2018-02-01T03:47:52.686Z,15.52
2018-02-01T03:48:56.903Z,17.05
2018-02-01T03:50:01.104Z,19.20
2018-02-01T03:51:06.043Z,18.40
2018-02-01T03:52:10.344Z,19.20
2018-02-01T03:53:15.287Z,18.23
2018-02-01T03:54:19.506Z,24.77
2018-02-01T03:55:23.793Z,18.25
2018-02-01T03:56:28.042Z,19.55
2018-02-01T03:57:32.234Z,24.25
2018-02-01T03:58:36.461Z,16.52
2018-02-01T03:59:42.063Z,19.20
2018-02-01T04:00:46.456Z,18.77
2018-02-01T04:01:51.385Z,19.50
2018-02-01T04:02:55.565Z,17.30
2018-02-01T04:03:59.760Z,15.13
2018-02-01T04:05:03.947Z,20.90
2018-02-01T04:06:08.154Z,19.33
2018-02-01T04:07:13.392Z,22.45
2018-02-01T04:08:17.909Z,17.95
2018-02-01T04:09:22.297Z,18.52
2018-02-01T04:10:26.490Z,18.02
2018-02-01T04:11:30.680Z,21.57
2018-02-01T04:12:34.966Z,15.02
2018-02-01T04:13:40.171Z,15.73
2018-02-01T04:14:44.919Z,13.18
2018-02-01T04:15:49.187Z,19.20
2018-02-01T04:16:53.362Z,17.60
2018-02-01T04:17:57.594Z,20.50
2018-02-01T04:19:01.790Z,11.55
2018-02-01T04:20:06.010Z,12.65
2018-02-01T04:21:11.117Z,22.40
2018-02-01T04:22:15.846Z,21.50
2018-02-01T04:23:20.206Z,13.23
2018-02-01T04:24:24.419Z,26.90
2018-02-01T04:25:28.583Z,14.98
2018-02-01T04:26:32.786Z,15.13
2018-02-01T04:27:36.980Z,26.02
2018-02-01T04:28:41.693Z,29.50
2018-02-01T04:29:46.295Z,20.15
2018-02-01T04:30:51.004Z,17.23
2018-02-01T04:31:55.184Z,21.43
2018-02-01T04:32:59.404Z,17.60
2018-02-01T04:34:03.628Z,20.00
2018-02-01T04:35:07.809Z,21.83
2018-02-01T04:36:12.139Z,13.57
2018-02-01T04:37:17.063Z,14.57
2018-02-01T04:38:22.060Z,15.00
2018-02-01T04:39:26.267Z,17.00
2018-02-01T04:40:30.464Z,18.95
2018-02-01T04:41:35.459Z,12.10
2018-02-01T04:42:39.937Z,27.83
2018-02-01T04:43:44.513Z,18.77
2018-02-01T04:44:48.814Z,17.77
2018-02-01T04:45:53.792Z,10.25
2018-02-01T04:46:57.987Z,19.23
2018-02-01T04:48:02.944Z,17.10
2018-02-01T04:49:07.182Z,23.05
2018-02-01T04:50:11.761Z,12.60
2018-02-01T04:51:16.409Z,20.90
2018-02-01T04:52:20.676Z,21.43
2018-02-01T04:53:25.667Z,21.27
2018-02-01T04:54:30.256Z,19.45
2018-02-01T04:55:34.439Z,18.07
2018-02-01T04:56:38.650Z,21.37
2018-02-01T04:57:43.154Z,22.55
2018-02-01T04:58:47.509Z,20.12
2018-02-01T04:59:52.133Z,27.50
2018-02-01T05:00:56.350Z,22.17
2018-02-01T05:02:00.608Z,35.05
2018-02-01T05:03:05.584Z,22.58
2018-02-01T05:04:10.401Z,22.85
2018-02-01T05:05:14.873Z,23.42
2018-02-01T05:06:20.260Z,29.57
2018-02-01T05:07:24.530Z,23.42
2018-02-01T05:08:29.533Z,30.42
2018-02-01T05:09:33.738Z,33.53
2018-02-01T05:10:37.970Z,22.25
2018-02-01T05:11:42.327Z,34.60
2018-02-01T05:12:46.684Z,27.30
2018-02-01T05:13:50.914Z,25.83
2018-02-01T05:14:55.896Z,27.95
2018-02-01T05:16:00.115Z,46.27
2018-02-01T05:17:04.315Z,31.48
2018-02-01T05:18:08.954Z,29.80
2018-02-01T05:19:13.994Z,29.83
2018-02-01T05:20:19.048Z,36.33
2018-02-01T05:21:23.219Z,36.07
2018-02-01T05:22:27.438Z,51.08
2018-02-01T05:23:32.022Z,49.60
2018-02-01T05:24:36.238Z,37.80
2018-02-01T05:25:40.748Z,40.72
2018-02-01T05:26:45.289Z,39.90
2018-02-01T05:27:49.629Z,35.60
2018-02-01T05:28:54.189Z,41.55
2018-02-01T05:29:59.177Z,34.78
2018-02-01T05:31:03.360Z,36.17
2018-02-01T05:32:07.593Z,38.30
2018-02-01T05:33:12.261Z,34.35
2018-02-01T05:34:17.607Z,36.78
2018-02-01T05:35:22.179Z,42.38
2018-02-01T05:36:26.388Z,39.17
2018-02-01T05:37:30.588Z,34.45
2018-02-01T05:38:34.804Z,38.78
2018-02-01T05:39:39.675Z,47.00
2018-02-01T05:40:46.006Z,35.60
2018-02-01T05:41:50.356Z,41.53
2018-02-01T05:42:54.575Z,40.10
2018-02-01T05:43:58.753Z,43.23
2018-02-01T05:45:03.803Z,40.80
2018-02-01T05:46:07.970Z,34.50
2018-02-01T05:47:12.964Z,38.60
2018-02-01T05:48:17.666Z,35.83
2018-02-01T05:49:22.058Z,35.37
2018-02-01T05:50:27.417Z,33.22
2018-02-01T05:51:31.630Z,40.92
2018-02-01T05:52:35.837Z,30.92
2018-02-01T05:53:40.989Z,35.00
2018-02-01T05:54:46.388Z,39.03
2018-02-01T05:55:51.478Z,31.40
2018-02-01T05:56:55.734Z,34.75
2018-02-01T05:58:00.719Z,31.40
2018-02-01T05:59:04.906Z,26.30
2018-02-01T06:00:09.155Z,29.50
2018-02-01T06:01:13.561Z,28.33
2018-02-01T06:02:18.348Z,30.00
2018-02-01T06:03:22.541Z,33.78
2018-02-01T06:04:27.497Z,24.50
2018-02-01T06:05:31.700Z,30.12
2018-02-01T06:06:36.000Z,31.17
2018-02-01T06:07:42.298Z,28.60
2018-02-01T06:08:47.030Z,32.70
2018-02-01T06:09:51.688Z,29.80
2018-02-01T06:10:56.637Z,30.75
2018-02-01T06:12:00.835Z,26.90
2018-02-01T06:13:05.823Z,35.60
2018-02-01T06:14:10.231Z,28.58
2018-02-01T06:15:14.676Z,24.10
2018-02-01T06:16:20.273Z,28.87
2018-02-01T06:17:24.491Z,19.20
2018-02-01T06:18:28.736Z,25.88
2018-02-01T06:19:32.917Z,23.75
2018-02-01T06:20:37.155Z,26.20
2018-02-01T06:21:43.028Z,28.70
2018-02-01T06:22:48.021Z,23.47
2018-02-01T06:23:52.431Z,24.37
2018-02-01T06:24:56.613Z,23.27
2018-02-01T06:26:00.860Z,23.38
2018-02-01T06:27:05.028Z,29.83
2018-02-01T06:28:09.371Z,28.30
2018-02-01T06:29:14.461Z,22.85
2018-02-01T06:30:19.855Z,23.95
2018-02-01T06:31:24.091Z,26.50
2018-02-01T06:32:29.104Z,24.55
2018-02-01T06:33:33.299Z,23.80
2018-02-01T06:34:37.553Z,25.30
2018-02-01T06:35:42.648Z,36.47
2018-02-01T06:36:47.884Z,24.55
2018-02-01T06:37:52.124Z,28.52
2018-02-01T06:38:57.075Z,25.98
2018-02-01T06:40:01.291Z,24.02
2018-02-01T06:41:05.493Z,23.60
2018-02-01T06:42:09.748Z,19.08
2018-02-01T06:43:15.574Z,26.73
2018-02-01T06:44:21.346Z,21.58
2018-02-01T06:45:25.520Z,16.70
2018-02-01T06:46:29.760Z,21.05
2018-02-01T06:47:33.969Z,23.23
2018-02-01T06:48:38.269Z,22.42
2018-02-01T06:49:42.749Z,23.77
2018-02-01T06:50:47.136Z,21.73
2018-02-01T06:51:51.433Z,30.50
2018-02-01T06:52:55.716Z,24.67
2018-02-01T06:53:59.958Z,24.30
2018-02-01T06:55:04.208Z,25.85
2018-02-01T06:56:09.821Z,22.52
2018-02-01T06:57:14.393Z,22.10
2018-02-01T06:58:19.061Z,38.93
2018-02-01T06:59:23.264Z,21.10
2018-02-01T07:00:27.480Z,20.75
2018-02-01T07:01:31.668Z,18.93
2018-02-01T07:02:35.864Z,19.57
2018-02-01T07:03:40.290Z,20.93
2018-02-01T07:04:45.587Z,25.40
2018-02-01T07:05:50.606Z,20.83
2018-02-01T07:06:54.776Z,19.87
2018-02-01T07:07:58.957Z,25.95
2018-02-01T07:09:03.145Z,27.27
2018-02-01T07:10:08.125Z,20.77
2018-02-01T07:11:12.439Z,29.57
2018-02-01T07:12:18.207Z,22.73
2018-02-01T07:13:23.915Z,23.23
2018-02-01T07:14:28.097Z,28.13
2018-02-01T07:15:33.472Z,28.73
2018-02-01T07:16:37.691Z,33.50
2018-02-01T07:17:42.031Z,27.50
2018-02-01T07:18:46.306Z,30.37
2018-02-01T07:19:50.527Z,23.40
2018-02-01T07:20:54.747Z,26.25
2018-02-01T07:21:58.972Z,26.87
2018-02-01T07:23:03.180Z,18.15
2018-02-01T07:24:07.379Z,25.00
2018-02-01T07:25:11.858Z,18.12
2018-02-01T07:26:16.199Z,26.05
2018-02-01T07:27:20.528Z,19.45
2018-02-01T07:28:24.735Z,26.58
2018-02-01T07:29:28.940Z,25.37
2018-02-01T07:30:33.135Z,19.05
2018-02-01T07:31:37.380Z,31.80
2018-02-01T07:32:42.353Z,27.10
2018-02-01T07:33:46.610Z,15.52
2018-02-01T07:34:50.848Z,21.95
2018-02-01T07:35:55.826Z,21.75
2018-02-01T07:37:00.084Z,34.90
2018-02-01T07:38:04.277Z,23.17
2018-02-01T07:39:08.476Z,23.48
2018-02-01T07:40:13.228Z,26.23
2018-02-01T07:41:17.448Z,21.45
2018-02-01T07:42:22.411Z,22.80
2018-02-01T07:43:26.599Z,31.15
2018-02-01T07:44:31.583Z,23.58
2018-02-01T07:45:36.076Z,25.80
2018-02-01T07:46:41.607Z,14.23
2018-02-01T07:47:46.708Z,22.70
2018-02-01T07:48:50.924Z,22.37
2018-02-01T07:49:55.911Z,26.12
2018-02-01T07:51:00.076Z,22.20
2018-02-01T07:52:04.271Z,19.65
2018-02-01T07:53:09.614Z,25.45
2018-02-01T07:54:14.435Z,21.65
2018-02-01T07:55:19.451Z,19.42
2018-02-01T07:56:23.652Z,30.17
2018-02-01T07:57:27.851Z,18.65
2018-02-01T07:58:32.052Z,24.50
2018-02-01T07:59:36.224Z,21.75
2018-02-01T08:00:41.823Z,28.07
2018-02-01T08:01:46.547Z,19.85
2018-02-01T08:02:51.574Z,24.95
2018-02-01T08:03:55.837Z,27.98
2018-02-01T08:05:00.052Z,19.25
2018-02-01T08:06:04.288Z,21.20
2018-02-01T08:07:08.548Z,22.73
2018-02-01T08:08:13.258Z,26.98
2018-02-01T08:09:17.544Z,14.07
2018-02-01T08:10:21.921Z,20.37
2018-02-01T08:11:26.115Z,27.30
2018-02-01T08:12:30.321Z,20.08
2018-02-01T08:13:35.279Z,22.15
2018-02-01T08:14:39.726Z,23.50
2018-02-01T08:15:44.140Z,33.42
2018-02-01T08:16:48.545Z,27.63
2018-02-01T08:17:52.756Z,24.65
2018-02-01T08:18:56.923Z,19.80
2018-02-01T08:20:01.880Z,17.07
2018-02-01T08:21:06.068Z,33.47
2018-02-01T08:22:11.107Z,23.20
2018-02-01T08:23:15.431Z,19.62
2018-02-01T08:24:19.690Z,15.85
2018-02-01T08:25:23.916Z,24.63
2018-02-01T08:26:28.861Z,18.05
2018-02-01T08:27:33.055Z,19.17
2018-02-01T08:28:38.044Z,20.23
2018-02-01T08:29:43.208Z,29.47
2018-02-01T08:30:48.013Z,27.42
2018-02-01T08:31:52.276Z,18.08
2018-02-01T08:32:56.448Z,26.77
2018-02-01T08:34:00.660Z,15.25
2018-02-01T08:35:04.964Z,23.37
2018-02-01T08:36:11.572Z,20.65
2018-02-01T08:37:15.904Z,23.05
2018-02-01T08:38:20.191Z,23.30
2018-02-01T08:39:25.152Z,20.30
2018-02-01T08:40:29.385Z,24.87
2018-02-01T08:41:33.642Z,14.98
2018-02-01T08:42:37.817Z,14.43
2018-02-01T08:43:42.487Z,15.70
2018-02-01T08:44:47.603Z,15.43
2018-02-01T08:45:51.895Z,20.17
2018-02-01T08:46:56.068Z,20.67
2018-02-01T08:48:00.237Z,17.00
2018-02-01T08:49:04.494Z,15.18
2018-02-01T08:50:08.759Z,18.85
2018-02-01T08:51:13.091Z,21.98
2018-02-01T08:52:17.481Z,18.60
2018-02-01T08:53:22.421Z,22.33
2018-02-01T08:54:26.662Z,22.10
2018-02-01T08:55:30.895Z,18.80
2018-02-01T08:56:35.079Z,32.10
2018-02-01T08:57:39.314Z,27.92
2018-02-01T08:58:43.572Z,15.70
2018-02-01T08:59:48.594Z,20.97
2018-02-01T09:00:53.631Z,23.40
2018-02-01T09:01:58.564Z,12.57
2018-02-01T09:03:03.493Z,18.13
2018-02-01T09:04:08.431Z,26.03
2018-02-01T09:05:13.525Z,13.00
2018-02-01T09:06:17.776Z,22.33
2018-02-01T09:07:21.959Z,12.98
2018-02-01T09:08:26.163Z,24.65
2018-02-01T09:09:31.119Z,13.27
2018-02-01T09:10:35.310Z,21.03
2018-02-01T09:11:40.441Z,16.03
2018-02-01T09:12:44.728Z,20.00
2018-02-01T09:13:48.986Z,29.65
2018-02-01T09:14:54.124Z,15.05
2018-02-01T09:15:58.345Z,14.83
2018-02-01T09:17:02.559Z,12.50
2018-02-01T09:18:06.754Z,24.80
2018-02-01T09:19:11.147Z,14.57
2018-02-01T09:20:16.045Z,14.98
2018-02-01T09:21:20.274Z,17.23
2018-02-01T09:22:25.239Z,13.83
2018-02-01T09:23:29.456Z,25.40
2018-02-01T09:24:33.691Z,16.57
2018-02-01T09:25:37.861Z,12.27
2018-02-01T09:26:42.261Z,13.55
2018-02-01T09:27:46.756Z,14.30
2018-02-01T09:28:51.907Z,16.63
2018-02-01T09:29:56.858Z,19.33
2018-02-01T09:31:01.076Z,15.30
2018-02-01T09:32:05.289Z,16.92
2018-02-01T09:33:09.518Z,19.83
2018-02-01T09:34:13.977Z,18.37
2018-02-01T09:35:19.160Z,10.65
2018-02-01T09:36:23.699Z,17.93
2018-02-01T09:37:27.896Z,14.60
2018-02-01T09:38:32.109Z,13.23
2018-02-01T09:39:36.312Z,14.65
2018-02-01T09:40:41.204Z,12.55
2018-02-01T09:41:45.531Z,15.82
2018-02-01T09:42:49.848Z,13.70
2018-02-01T09:43:54.025Z,9.60
2018-02-01T09:44:58.992Z,14.82
2018-02-01T09:46:03.297Z,13.13
2018-02-01T09:47:07.520Z,17.37
2018-02-01T09:48:12.119Z,17.53
2018-02-01T09:49:16.471Z,16.70
2018-02-01T09:50:21.596Z,18.08
2018-02-01T09:51:25.791Z,18.08
2018-02-01T09:52:29.963Z,11.65
2018-02-01T09:53:34.158Z,16.50
2018-02-01T09:54:39.042Z,11.75
2018-02-01T09:55:44.397Z,16.10
2018-02-01T09:56:48.633Z,11.70
2018-02-01T09:57:52.847Z,17.75
2018-02-01T09:58:57.015Z,11.80
2018-02-01T10:00:01.208Z,18.27
2018-02-01T10:01:05.456Z,16.40
2018-02-01T10:02:10.249Z,14.80
2018-02-01T10:03:14.505Z,10.77
2018-02-01T10:04:18.762Z,12.47
2018-02-01T10:05:23.077Z,9.87
2018-02-01T10:06:28.211Z,9.47
2018-02-01T10:07:32.485Z,10.90
2018-02-01T10:08:36.674Z,11.00
2018-02-01T10:09:42.378Z,14.23
2018-02-01T10:10:48.475Z,6.82
2018-02-01T10:11:52.723Z,17.73
2018-02-01T10:12:56.944Z,12.48
2018-02-01T10:14:01.919Z,9.30
2018-02-01T10:15:06.088Z,18.50
2018-02-01T10:16:10.693Z,12.75
2018-02-01T10:17:15.810Z,11.00
2018-02-01T10:18:20.969Z,23.62
2018-02-01T10:19:25.172Z,18.60
2018-02-01T10:20:30.123Z,16.27
2018-02-01T10:21:34.322Z,21.40
2018-02-01T10:22:38.676Z,13.57
2018-02-01T10:23:43.024Z,14.50
2018-02-01T10:24:47.482Z,16.57
2018-02-01T10:25:51.692Z,14.03
2018-02-01T10:26:55.880Z,20.48
2018-02-01T10:28:00.930Z,16.83
2018-02-01T10:29:05.107Z,13.57
2018-02-01T10:30:09.943Z,12.63
2018-02-01T10:31:14.340Z,20.80
2018-02-01T10:32:18.885Z,14.95
2018-02-01T10:33:23.193Z,18.10
2018-02-01T10:34:27.428Z,15.25
2018-02-01T10:35:31.642Z,18.47
2018-02-01T10:36:35.872Z,16.23
2018-02-01T10:37:40.192Z,19.12
2018-02-01T10:38:45.008Z,17.40
2018-02-01T10:39:49.610Z,17.10
2018-02-01T10:40:53.803Z,15.65
2018-02-01T10:41:57.981Z,23.05
2018-02-01T10:43:02.183Z,17.70
2018-02-01T10:44:06.379Z,17.07
2018-02-01T10:45:11.429Z,20.75
2018-02-01T10:46:16.567Z,20.77
2018-02-01T10:47:21.544Z,21.10
2018-02-01T10:48:25.767Z,14.43
2018-02-01T10:49:29.973Z,21.73
2018-02-01T10:50:34.582Z,23.05
2018-02-01T10:51:38.785Z,36.53
2018-02-01T10:52:43.344Z,20.40
2018-02-01T10:53:47.770Z,18.90
2018-02-01T10:54:52.096Z,20.77
2018-02-01T10:55:56.311Z,18.98
2018-02-01T10:57:01.300Z,20.30
2018-02-01T10:58:05.523Z,25.05
2018-02-01T10:59:09.997Z,24.17
2018-02-01T11:00:14.399Z,20.67
2018-02-01T11:01:19.549Z,24.95
2018-02-01T11:02:23.723Z,24.83
2018-02-01T11:03:28.656Z,17.17
2018-02-01T11:04:33.611Z,20.37
2018-02-01T11:05:37.812Z,30.58
2018-02-01T11:06:42.024Z,23.75
2018-02-01T11:07:46.859Z,28.65
2018-02-01T11:08:51.731Z,15.93
2018-02-01T11:09:55.951Z,20.20
2018-02-01T11:11:00.137Z,21.77
2018-02-01T11:12:04.309Z,23.73
2018-02-01T11:13:08.493Z,19.25
2018-02-01T11:14:12.802Z,22.10
2018-02-01T11:15:18.018Z,18.57
2018-02-01T11:16:22.468Z,28.70
2018-02-01T11:17:27.455Z,22.52
2018-02-01T11:18:31.659Z,21.90
2018-02-01T11:19:35.904Z,41.17
2018-02-01T11:20:40.187Z,16.80
2018-02-01T11:21:44.653Z,23.05
2018-02-01T11:22:49.090Z,32.60
2018-02-01T11:23:53.269Z,18.17
2018-02-01T11:24:58.324Z,17.08
2018-02-01T11:26:02.559Z,28.20
2018-02-01T11:27:06.744Z,18.30
2018-02-01T11:28:11.015Z,23.17
2018-02-01T11:29:16.191Z,21.87
2018-02-01T11:30:20.414Z,24.00
2018-02-01T11:31:24.602Z,22.42
2018-02-01T11:32:29.539Z,20.17
2018-02-01T11:33:33.730Z,22.83
2018-02-01T11:34:38.689Z,20.73
2018-02-01T11:35:44.007Z,21.02
2018-02-01T11:36:49.256Z,23.42
2018-02-01T11:37:53.464Z,17.30
2018-02-01T11:38:57.641Z,28.40
2018-02-01T11:40:01.839Z,28.47
2018-02-01T11:41:06.069Z,23.30
2018-02-01T11:42:10.427Z,21.17
2018-02-01T11:43:14.839Z,25.05
2018-02-01T11:44:19.188Z,28.50
2018-02-01T11:45:23.387Z,26.23
2018-02-01T11:46:27.611Z,28.53
2018-02-01T11:47:31.814Z,23.53
2018-02-01T11:48:36.016Z,24.80
2018-02-01T11:49:41.070Z,31.03
2018-02-01T11:50:45.735Z,31.73
2018-02-01T11:51:49.953Z,28.87
2018-02-01T11:52:54.150Z,22.35
2018-02-01T11:53:58.352Z,29.17
2018-02-01T11:55:03.285Z,25.90
2018-02-01T11:56:07.508Z,20.87
2018-02-01T11:57:11.827Z,31.73
2018-02-01T11:58:16.124Z,21.70
2018-02-01T11:59:20.361Z,27.20
2018-02-01T12:00:24.571Z,23.93
2018-02-01T12:01:28.752Z,15.10
2018-02-01T12:02:32.956Z,32.47
2018-02-01T12:03:37.972Z,26.85
2018-02-01T12:04:43.512Z,21.40
2018-02-01T12:05:48.660Z,24.90
2018-02-01T12:06:53.672Z,23.50
2018-02-01T12:07:57.877Z,21.13
2018-02-01T12:09:02.106Z,25.58
2018-02-01T12:10:07.049Z,28.42
2018-02-01T12:11:12.167Z,24.30
2018-02-01T12:12:16.407Z,40.57
2018-02-01T12:13:20.680Z,23.90
2018-02-01T12:14:25.652Z,18.10
2018-02-01T12:15:29.881Z,29.90
2018-02-01T12:16:34.083Z,28.60
2018-02-01T12:17:38.269Z,20.53
2018-02-01T12:18:43.125Z,24.83
2018-02-01T12:19:47.406Z,25.93
2018-02-01T12:20:52.181Z,24.98
2018-02-01T12:21:56.385Z,37.37
2018-02-01T12:23:00.561Z,22.57
2018-02-01T12:24:04.808Z,26.00
2018-02-01T12:25:09.757Z,26.70
2018-02-01T12:26:14.719Z,24.27
2018-02-01T12:27:19.269Z,31.62
2018-02-01T12:28:24.247Z,24.33
2018-02-01T12:29:29.199Z,26.47
2018-02-01T12:30:33.405Z,21.33
2018-02-01T12:31:37.600Z,23.77
2018-02-01T12:32:42.560Z,25.23
2018-02-01T12:33:46.862Z,29.60
2018-02-01T12:34:51.883Z,17.63
2018-02-01T12:35:56.079Z,29.57
2018-02-01T12:37:01.039Z,26.57
2018-02-01T12:38:05.236Z,23.38
2018-02-01T12:39:10.564Z,21.95
2018-02-01T12:40:15.672Z,20.63
2018-02-01T12:41:21.059Z,30.12
2018-02-01T12:42:25.359Z,26.23
2018-02-01T12:43:29.525Z,27.33
2018-02-01T12:44:33.724Z,24.33
2018-02-01T12:45:37.927Z,23.47
2018-02-01T12:46:42.165Z,25.48
2018-02-01T12:47:46.466Z,25.37
2018-02-01T12:48:50.786Z,27.27
2018-02-01T12:49:54.986Z,20.60
2018-02-01T12:50:59.187Z,20.37
2018-02-01T12:52:03.411Z,25.15
2018-02-01T12:53:07.609Z,27.47
2018-02-01T12:54:11.853Z,25.47
2018-02-01T12:55:16.849Z,22.95
2018-02-01T12:56:21.060Z,18.75
2018-02-01T12:57:25.284Z,22.60
2018-02-01T12:58:29.492Z,20.93
2018-02-01T12:59:33.728Z,28.50
2018-02-01T13:00:38.886Z,28.83
2018-02-01T13:01:43.335Z,25.65
2018-02-01T13:02:48.983Z,23.50
2018-02-01T13:03:53.466Z,19.05
2018-02-01T13:04:57.686Z,20.27
2018-02-01T13:06:01.927Z,15.75
2018-02-01T13:07:06.127Z,15.18
2018-02-01T13:08:10.578Z,16.50
2018-02-01T13:09:14.888Z,16.48
2018-02-01T13:10:19.908Z,13.43
2018-02-01T13:11:24.076Z,15.17
2018-02-01T13:12:28.281Z,15.98
2018-02-01T13:13:32.506Z,13.40
2018-02-01T13:14:36.709Z,16.07
2018-02-01T13:15:42.906Z,17.85
2018-02-01T13:16:47.477Z,16.73
2018-02-01T13:17:51.919Z,20.88
2018-02-01T13:18:56.159Z,17.90
2018-02-01T13:20:01.156Z,17.30
2018-02-01T13:21:05.361Z,17.55
2018-02-01T13:22:09.860Z,20.90
2018-02-01T13:23:14.972Z,15.68
2018-02-01T13:24:20.024Z,16.12
2018-02-01T13:25:24.286Z,14.07
2018-02-01T13:26:28.495Z,18.70
2018-02-01T13:27:32.705Z,16.80
2018-02-01T13:28:36.898Z,16.25
2018-02-01T13:29:41.665Z,17.00
2018-02-01T13:30:46.276Z,18.67
2018-02-01T13:31:52.120Z,16.42
2018-02-01T13:32:56.300Z,16.67
2018-02-01T13:34:00.492Z,15.63
2018-02-01T13:35:04.749Z,15.70
2018-02-01T13:36:09.062Z,18.63
2018-02-01T13:37:13.937Z,17.52
2018-02-01T13:38:18.201Z,18.83
2018-02-01T13:39:23.158Z,16.57
2018-02-01T13:40:28.123Z,16.92
2018-02-01T13:41:32.370Z,19.83
2018-02-01T13:42:36.594Z,16.77
2018-02-01T13:43:41.838Z,21.75
2018-02-01T13:44:46.371Z,14.53
2018-02-01T13:45:50.625Z,13.68
2018-02-01T13:46:54.825Z,14.25
2018-02-01T13:47:59.194Z,12.77
2018-02-01T13:49:04.146Z,11.88
2018-02-01T13:50:08.319Z,13.07
2018-02-01T13:51:13.996Z,14.10